createdAt,value
2018-09-01T00:03:00.485Z,60.20
2018-09-01T00:07:04.168Z,60.20
2018-09-01T00:11:07.919Z,61.10
2018-09-01T00:15:11.558Z,60.20
2018-09-01T00:19:15.200Z,60.30
2018-09-01T00:23:18.836Z,60.30
2018-09-01T00:27:23.121Z,60.30
2018-09-01T00:31:26.768Z,60.20
2018-09-01T00:35:30.409Z,60.20
2018-09-01T00:39:38.405Z,60.20
2018-09-01T00:43:42.081Z,60.30
2018-09-01T00:47:45.692Z,60.20
2018-09-01T00:51:49.329Z,60.20
2018-09-01T00:55:52.967Z,60.20
2018-09-01T00:59:56.657Z,60.30
2018-09-01T01:04:00.307Z,60.30
2018-09-01T01:08:03.928Z,60.40
2018-09-01T01:12:07.562Z,61.30
2018-09-01T01:16:11.219Z,60.50
2018-09-01T01:20:14.934Z,60.40
2018-09-01T01:24:18.584Z,60.50
2018-09-01T01:28:22.318Z,60.60
2018-09-01T01:32:25.967Z,60.80
2018-09-01T01:36:29.675Z,61.00
2018-09-01T01:40:33.336Z,61.20
2018-09-01T01:44:37.077Z,61.20
2018-09-01T01:48:40.836Z,61.10
2018-09-01T01:52:44.523Z,61.00
2018-09-01T01:56:48.194Z,61.00
2018-09-01T02:00:51.899Z,61.10
2018-09-01T02:04:55.574Z,61.00
2018-09-01T02:08:59.397Z,61.00
2018-09-01T02:13:03.072Z,60.90
2018-09-01T02:17:06.814Z,61.00
2018-09-01T02:21:10.485Z,61.30
2018-09-01T02:25:14.264Z,61.60
2018-09-01T02:29:17.960Z,61.40
2018-09-01T02:33:21.722Z,61.40
2018-09-01T02:37:25.393Z,61.40
2018-09-01T02:41:29.078Z,61.50
2018-09-01T02:45:32.783Z,61.90
2018-09-01T02:49:36.540Z,61.60
2018-09-01T02:53:40.191Z,61.50
2018-09-01T02:57:44.032Z,61.40
2018-09-01T03:01:47.727Z,61.40
2018-09-01T03:05:51.403Z,61.30
2018-09-01T03:09:55.108Z,61.30
2018-09-01T03:13:58.732Z,61.40
2018-09-01T03:18:02.451Z,61.30
2018-09-01T03:22:06.184Z,61.30
2018-09-01T03:26:09.871Z,61.20
2018-09-01T03:30:13.556Z,61.30
2018-09-01T03:34:17.197Z,61.40
2018-09-01T03:38:20.861Z,61.30
2018-09-01T03:42:24.517Z,61.30
2018-09-01T03:46:28.187Z,61.30
2018-09-01T03:50:31.859Z,61.30
2018-09-01T03:54:35.688Z,61.50
2018-09-01T03:58:39.428Z,61.60
2018-09-01T04:02:43.083Z,61.80
2018-09-01T04:06:46.747Z,61.90
2018-09-01T04:10:50.412Z,61.80
2018-09-01T04:14:54.035Z,61.80
2018-09-01T04:18:57.713Z,62.10
2018-09-01T04:23:01.375Z,61.80
2018-09-01T04:27:05.163Z,61.70
2018-09-01T04:31:08.831Z,61.70
2018-09-01T04:35:12.547Z,61.60
2018-09-01T04:39:16.374Z,61.50
2018-09-01T04:43:20.125Z,61.70
2018-09-01T04:47:23.803Z,61.80
2018-09-01T04:51:27.471Z,61.90
2018-09-01T04:55:31.119Z,61.80
2018-09-01T04:59:34.867Z,61.90
2018-09-01T05:03:38.516Z,62.30
2018-09-01T05:07:42.207Z,62.30
2018-09-01T05:11:45.882Z,62.30
2018-09-01T05:15:49.531Z,62.90
2018-09-01T05:19:53.177Z,62.50
2018-09-01T05:23:56.871Z,63.60
2018-09-01T05:28:00.565Z,62.60
2018-09-01T05:32:05.589Z,62.20
2018-09-01T05:36:10.136Z,62.30
2018-09-01T05:40:14.854Z,62.30
2018-09-01T05:44:19.861Z,63.00
2018-09-01T05:48:25.448Z,63.00
2018-09-01T05:52:30.305Z,63.00
2018-09-01T05:56:33.991Z,63.70
2018-09-01T06:00:41.920Z,63.90
2018-09-01T06:04:45.578Z,64.10
2018-09-01T06:08:49.236Z,65.10
2018-09-01T06:12:52.905Z,65.10
2018-09-01T06:16:56.587Z,65.60
2018-09-01T06:21:00.249Z,65.00
2018-09-01T06:25:04.460Z,65.80
2018-09-01T06:29:10.384Z,65.80
2018-09-01T06:33:14.111Z,65.40
2018-09-01T06:37:17.760Z,65.50
2018-09-01T06:41:21.476Z,65.10
2018-09-01T06:45:25.181Z,67.00
2018-09-01T06:49:28.928Z,65.50
2018-09-01T06:53:32.628Z,67.50
2018-09-01T06:57:36.274Z,66.80
2018-09-01T07:01:39.948Z,67.70
2018-09-01T07:05:43.615Z,67.00
2018-09-01T07:09:47.324Z,67.20
2018-09-01T07:13:50.996Z,66.60
2018-09-01T07:17:54.659Z,67.60
2018-09-01T07:21:58.403Z,67.10
2018-09-01T07:26:02.150Z,67.60
2018-09-01T07:30:06.129Z,68.50
2018-09-01T07:34:09.835Z,70.50
2018-09-01T07:38:13.560Z,69.90
2018-09-01T07:42:17.279Z,67.80
2018-09-01T07:46:20.969Z,64.90
2018-09-01T07:50:24.782Z,62.80
2018-09-01T07:54:28.480Z,60.40
2018-09-01T07:58:32.240Z,57.10
2018-09-01T08:02:36.000Z,57.60
2018-09-01T08:06:39.713Z,57.50
2018-09-01T08:10:43.422Z,56.00
2018-09-01T08:14:47.150Z,55.70
2018-09-01T08:18:50.834Z,54.50
2018-09-01T08:22:54.591Z,55.20
2018-09-01T08:26:58.304Z,51.30
2018-09-01T08:31:02.027Z,52.20
2018-09-01T08:35:06.751Z,51.40
2018-09-01T08:39:10.880Z,53.20
2018-09-01T08:43:14.628Z,53.60
2018-09-01T08:47:18.300Z,54.50
2018-09-01T08:51:22.004Z,55.00
2018-09-01T08:55:25.691Z,55.30
2018-09-01T08:59:29.325Z,56.20
2018-09-01T09:03:33.161Z,57.50
2018-09-01T09:07:36.844Z,57.70
2018-09-01T09:11:40.604Z,58.50
2018-09-01T09:15:44.340Z,59.70
2018-09-01T09:19:48.077Z,58.80
2018-09-01T09:23:51.802Z,59.70
2018-09-01T09:27:55.487Z,59.90
2018-09-01T09:31:59.310Z,60.10
2018-09-01T09:36:02.974Z,59.50
2018-09-01T09:40:07.312Z,60.50
2018-09-01T09:44:11.068Z,61.10
2018-09-01T09:48:14.829Z,61.20
2018-09-01T09:52:18.504Z,61.10
2018-09-01T09:56:22.180Z,61.40
2018-09-01T10:00:31.282Z,61.50
2018-09-01T10:04:34.916Z,61.60
2018-09-01T10:08:38.619Z,61.30
2018-09-01T10:12:42.304Z,61.20
2018-09-01T10:16:45.968Z,61.60
2018-09-01T10:20:49.611Z,61.70
2018-09-01T10:24:53.371Z,60.70
2018-09-01T10:28:57.086Z,60.70
2018-09-01T10:33:00.758Z,61.70
2018-09-01T10:37:04.509Z,60.90
2018-09-01T10:41:08.232Z,61.70
2018-09-01T10:45:11.888Z,61.20
2018-09-01T10:49:15.623Z,61.10
2018-09-01T10:53:19.292Z,61.10
2018-09-01T10:57:22.963Z,61.30
2018-09-01T11:01:26.642Z,61.20
2018-09-01T11:05:30.286Z,60.90
2018-09-01T11:09:33.952Z,61.00
2018-09-01T11:13:37.640Z,60.60
2018-09-01T11:17:41.321Z,60.80
2018-09-01T11:21:45.015Z,59.80
2018-09-01T11:25:48.724Z,60.60
2018-09-01T11:29:52.412Z,60.20
2018-09-01T11:33:56.105Z,60.10
2018-09-01T11:37:59.788Z,60.00
2018-09-01T11:42:03.440Z,60.20
2018-09-01T11:46:07.104Z,57.90
2018-09-01T11:50:10.984Z,58.40
2018-09-01T11:54:14.617Z,58.70
2018-09-01T11:58:18.302Z,58.60
2018-09-01T12:02:22.059Z,59.00
2018-09-01T12:06:25.664Z,58.20
2018-09-01T12:10:29.373Z,57.80
2018-09-01T12:14:33.047Z,58.40
2018-09-01T12:18:36.724Z,58.30
2018-09-01T12:22:40.404Z,58.20
2018-09-01T12:26:44.111Z,56.90
2018-09-01T12:30:47.785Z,57.10
2018-09-01T12:34:51.453Z,58.10
2018-09-01T12:38:55.135Z,58.40
2018-09-01T12:42:58.835Z,58.30
2018-09-01T12:47:02.644Z,57.60
2018-09-01T12:51:06.451Z,57.90
2018-09-01T12:55:10.133Z,57.80
2018-09-01T12:59:13.896Z,56.40
2018-09-01T13:03:17.565Z,58.90
2018-09-01T13:07:21.275Z,52.90
2018-09-01T13:11:25.016Z,55.90
2018-09-01T13:15:28.708Z,56.70
2018-09-01T13:19:32.454Z,54.80
2018-09-01T13:23:36.119Z,55.90
2018-09-01T13:27:39.800Z,55.90
2018-09-01T13:31:43.548Z,55.20
2018-09-01T13:35:47.238Z,54.30
2018-09-01T13:39:50.908Z,53.80
2018-09-01T13:43:54.602Z,54.30
2018-09-01T13:47:58.231Z,54.90
2018-09-01T13:52:01.907Z,55.40
2018-09-01T13:56:05.655Z,54.60
2018-09-01T14:00:09.373Z,54.30
2018-09-01T14:04:13.031Z,54.10
2018-09-01T14:08:16.700Z,53.40
2018-09-01T14:12:20.419Z,52.40
2018-09-01T14:16:24.084Z,53.40
2018-09-01T14:20:27.787Z,53.30
2018-09-01T14:24:31.473Z,54.40
2018-09-01T14:28:35.171Z,53.30
2018-09-01T14:32:39.070Z,51.60
2018-09-01T14:36:42.791Z,53.20
2018-09-01T14:40:52.814Z,53.90
2018-09-01T14:44:56.611Z,53.50
2018-09-01T14:49:00.346Z,53.10
2018-09-01T14:53:04.049Z,52.40
2018-09-01T14:57:07.713Z,53.80
2018-09-01T15:01:12.234Z,53.80
2018-09-01T15:05:15.908Z,53.40
2018-09-01T15:09:19.584Z,53.10
2018-09-01T15:13:23.238Z,53.20
2018-09-01T15:17:26.891Z,53.70
2018-09-01T15:21:30.631Z,53.70
2018-09-01T15:25:34.287Z,53.40
2018-09-01T15:29:37.991Z,54.20
2018-09-01T15:33:41.668Z,53.90
2018-09-01T15:37:45.337Z,54.30
2018-09-01T15:41:49.012Z,54.40
2018-09-01T15:45:52.652Z,54.50
2018-09-01T15:49:56.355Z,54.70
2018-09-01T15:54:00.127Z,53.90
2018-09-01T15:58:03.791Z,52.60
2018-09-01T16:02:07.580Z,53.30
2018-09-01T16:06:11.224Z,53.40
2018-09-01T16:10:14.893Z,54.10
2018-09-01T16:14:18.565Z,52.00
2018-09-01T16:18:22.247Z,52.30
2018-09-01T16:22:25.955Z,52.70
2018-09-01T16:26:29.625Z,53.40
2018-09-01T16:30:33.313Z,53.00
2018-09-01T16:34:37.278Z,53.60
2018-09-01T16:38:40.986Z,52.50
2018-09-01T16:42:44.717Z,53.00
2018-09-01T16:46:48.440Z,53.10
2018-09-01T16:50:52.229Z,52.80
2018-09-01T16:54:55.925Z,52.50
2018-09-01T16:58:59.615Z,52.30
2018-09-01T17:03:03.320Z,53.20
2018-09-01T17:07:06.987Z,52.80
2018-09-01T17:11:10.733Z,53.60
2018-09-01T17:15:14.518Z,53.00
2018-09-01T17:19:18.251Z,52.80
2018-09-01T17:23:21.920Z,51.90
2018-09-01T17:27:25.584Z,53.10
2018-09-01T17:31:29.254Z,53.20
2018-09-01T17:35:32.996Z,53.40
2018-09-01T17:39:36.703Z,53.50
2018-09-01T17:43:40.383Z,54.10
2018-09-01T17:47:44.007Z,54.10
2018-09-01T17:51:47.654Z,54.30
2018-09-01T17:55:51.432Z,54.40
2018-09-01T17:59:55.190Z,54.50
2018-09-01T18:03:58.873Z,54.60
2018-09-01T18:08:02.528Z,54.80
2018-09-01T18:12:06.265Z,54.80
2018-09-01T18:16:09.931Z,54.90
2018-09-01T18:20:13.596Z,55.10
2018-09-01T18:24:17.302Z,55.20
2018-09-01T18:28:21.004Z,55.20
2018-09-01T18:32:24.646Z,55.30
2018-09-01T18:36:28.336Z,55.40
2018-09-01T18:40:32.136Z,55.40
2018-09-01T18:44:35.856Z,55.50
2018-09-01T18:48:39.525Z,55.50
2018-09-01T18:52:43.160Z,55.50
2018-09-01T18:56:46.842Z,55.60
2018-09-01T19:00:50.602Z,55.70
2018-09-01T19:04:54.333Z,55.70
2018-09-01T19:08:57.980Z,55.70
2018-09-01T19:13:01.652Z,55.70
2018-09-01T19:17:05.401Z,55.30
2018-09-01T19:21:09.221Z,55.90
2018-09-01T19:25:12.920Z,56.00
2018-09-01T19:29:16.634Z,56.10
2018-09-01T19:33:20.449Z,56.20
2018-09-01T19:37:24.122Z,56.10
2018-09-01T19:41:27.779Z,56.20
2018-09-01T19:45:31.635Z,56.30
2018-09-01T19:49:35.184Z,56.30
2018-09-01T19:53:38.888Z,56.50
2018-09-01T19:57:42.578Z,56.50
2018-09-01T20:01:46.256Z,56.70
2018-09-01T20:05:49.940Z,56.60
2018-09-01T20:09:53.616Z,57.00
2018-09-01T20:13:57.332Z,56.70
2018-09-01T20:18:01.000Z,56.80
2018-09-01T20:22:04.735Z,56.80
2018-09-01T20:26:08.429Z,56.80
2018-09-01T20:30:12.108Z,56.90
2018-09-01T20:34:15.741Z,56.80
2018-09-01T20:38:19.400Z,56.90
2018-09-01T20:42:23.100Z,56.80
2018-09-01T20:46:26.767Z,56.90
2018-09-01T20:50:30.504Z,56.90
2018-09-01T20:54:34.172Z,57.00
2018-09-01T20:58:37.821Z,56.90
2018-09-01T21:02:41.486Z,56.90
2018-09-01T21:06:45.157Z,57.00
2018-09-01T21:10:48.849Z,56.90
2018-09-01T21:14:52.499Z,56.90
2018-09-01T21:18:56.167Z,56.90
2018-09-01T21:22:59.836Z,56.80
2018-09-01T21:27:03.552Z,56.80
2018-09-01T21:31:07.247Z,56.80
2018-09-01T21:35:10.907Z,56.50
2018-09-01T21:39:14.593Z,57.10
2018-09-01T21:43:18.293Z,57.10
2018-09-01T21:47:22.021Z,57.10
2018-09-01T21:51:25.688Z,57.20
2018-09-01T21:55:29.353Z,57.30
2018-09-01T21:59:33.087Z,57.30
2018-09-01T22:03:40.951Z,57.30
2018-09-01T22:07:44.904Z,57.30
2018-09-01T22:11:48.561Z,57.50
2018-09-01T22:15:52.246Z,57.40
2018-09-01T22:19:55.913Z,57.40
2018-09-01T22:23:59.597Z,57.40
2018-09-01T22:28:03.336Z,57.40
2018-09-01T22:32:07.033Z,57.50
2018-09-01T22:36:10.712Z,57.80
2018-09-01T22:40:14.392Z,57.80
2018-09-01T22:44:18.318Z,57.80
2018-09-01T22:48:21.988Z,57.60
2018-09-01T22:52:25.716Z,57.70
2018-09-01T22:56:29.384Z,57.70
2018-09-01T23:00:33.029Z,58.40
2018-09-01T23:04:36.724Z,57.70
2018-09-01T23:08:40.381Z,57.70
2018-09-01T23:12:44.097Z,57.20
2018-09-01T23:16:47.856Z,57.80
2018-09-01T23:20:51.548Z,57.70
2018-09-01T23:24:55.244Z,57.70
2018-09-01T23:28:58.937Z,57.80
2018-09-01T23:33:02.638Z,57.80
2018-09-01T23:37:06.351Z,57.90
2018-09-01T23:41:09.993Z,58.00
2018-09-01T23:45:13.655Z,58.00
2018-09-01T23:49:17.336Z,58.00
2018-09-01T23:53:20.988Z,58.00
2018-09-01T23:57:24.661Z,58.10
